Terminal Aerodrome Forecast
Issued by NWS

Home | Current Version | Previous Version | Text Only | Print | Product List | Glossary On
Versions: 1 2 3 4 5 6 7 8 9 10 11 12 13 14 15 16 17 18 19 20 21
000
FTUS45 KFGZ 010500
TAFPRC
TAF
KPRC 010536Z 0106/0206 VRB05KT P6SM SCT035 SCT150
      TEMPO 0110/0114 1SM BR BKN005
     FM011600 VRB05KT P6SM SCT040
     FM020200 20005KT P6SM SCT150=

USA.gov is the U.S. government's official web portal to all federal, state and local government web resources and services.